sensor_id;sensor_type;location;lat;lon;timestamp;P1;durP1;ratioP1;P2;durP2;ratioP2
73869;SDS011;64924;42.140;24.762;2022-12-18T00:01:03;71.10;;;45.10;;
73869;SDS011;64924;42.140;24.762;2022-12-18T00:03:33;81.47;;;48.42;;
73869;SDS011;64924;42.140;24.762;2022-12-18T00:05:58;77.68;;;48.47;;
73869;SDS011;64924;42.140;24.762;2022-12-18T00:08:24;81.68;;;47.67;;
73869;SDS011;64924;42.140;24.762;2022-12-18T00:10:50;74.47;;;44.70;;
73869;SDS011;64924;42.140;24.762;2022-12-18T00:13:15;68.70;;;44.13;;
73869;SDS011;64924;42.140;24.762;2022-12-18T00:15:41;69.28;;;42.63;;
73869;SDS011;64924;42.140;24.762;2022-12-18T00:18:07;73.05;;;44.63;;
73869;SDS011;64924;42.140;24.762;2022-12-18T00:20:39;67.63;;;42.63;;
73869;SDS011;64924;42.140;24.762;2022-12-18T00:23:05;67.85;;;42.33;;
73869;SDS011;64924;42.140;24.762;2022-12-18T00:25:33;71.90;;;42.47;;
73869;SDS011;64924;42.140;24.762;2022-12-18T00:27:59;69.03;;;43.20;;
73869;SDS011;64924;42.140;24.762;2022-12-18T00:30:25;77.35;;;45.28;;
73869;SDS011;64924;42.140;24.762;2022-12-18T00:32:51;76.07;;;43.78;;
73869;SDS011;64924;42.140;24.762;2022-12-18T00:35:16;66.00;;;43.08;;
73869;SDS011;64924;42.140;24.762;2022-12-18T00:37:42;71.68;;;45.35;;
73869;SDS011;64924;42.140;24.762;2022-12-18T00:40:08;77.60;;;46.42;;
73869;SDS011;64924;42.140;24.762;2022-12-18T00:42:34;73.70;;;44.72;;
73869;SDS011;64924;42.140;24.762;2022-12-18T00:45:19;76.35;;;43.58;;
73869;SDS011;64924;42.140;24.762;2022-12-18T00:47:44;74.57;;;44.53;;
73869;SDS011;64924;42.140;24.762;2022-12-18T00:50:10;69.45;;;43.75;;
73869;SDS011;64924;42.140;24.762;2022-12-18T00:52:36;74.63;;;43.45;;
73869;SDS011;64924;42.140;24.762;2022-12-18T00:55:01;78.00;;;45.42;;
73869;SDS011;64924;42.140;24.762;2022-12-18T00:57:27;70.55;;;43.67;;
73869;SDS011;64924;42.140;24.762;2022-12-18T00:59:52;65.28;;;42.10;;
73869;SDS011;64924;42.140;24.762;2022-12-18T01:02:18;81.00;;;40.55;;
73869;SDS011;64924;42.140;24.762;2022-12-18T01:04:43;68.05;;;39.53;;
73869;SDS011;64924;42.140;24.762;2022-12-18T01:07:08;83.18;;;40.50;;
73869;SDS011;64924;42.140;24.762;2022-12-18T01:09:34;73.28;;;42.45;;
73869;SDS011;64924;42.140;24.762;2022-12-18T01:11:59;71.68;;;38.65;;
73869;SDS011;64924;42.140;24.762;2022-12-18T01:14:25;87.30;;;41.28;;
73869;SDS011;64924;42.140;24.762;2022-12-18T01:16:51;80.15;;;44.08;;
73869;SDS011;64924;42.140;24.762;2022-12-18T01:19:16;77.07;;;44.70;;
73869;SDS011;64924;42.140;24.762;2022-12-18T01:21:41;67.00;;;40.92;;
73869;SDS011;64924;42.140;24.762;2022-12-18T01:24:07;61.88;;;38.97;;
73869;SDS011;64924;42.140;24.762;2022-12-18T01:26:32;57.75;;;36.05;;
73869;SDS011;64924;42.140;24.762;2022-12-18T01:28:58;57.13;;;38.33;;
73869;SDS011;64924;42.140;24.762;2022-12-18T01:31:25;59.17;;;37.75;;
73869;SDS011;64924;42.140;24.762;2022-12-18T01:33:53;56.55;;;36.60;;
73869;SDS011;64924;42.140;24.762;2022-12-18T01:36:26;55.75;;;35.75;;
73869;SDS011;64924;42.140;24.762;2022-12-18T01:38:56;54.60;;;36.17;;
73869;SDS011;64924;42.140;24.762;2022-12-18T01:41:25;56.70;;;37.67;;
73869;SDS011;64924;42.140;24.762;2022-12-18T01:47:20;61.15;;;38.55;;
73869;SDS011;64924;42.140;24.762;2022-12-18T01:49:49;54.47;;;36.70;;
73869;SDS011;64924;42.140;24.762;2022-12-18T01:52:15;55.63;;;38.85;;
73869;SDS011;64924;42.140;24.762;2022-12-18T01:54:42;60.15;;;38.80;;
73869;SDS011;64924;42.140;24.762;2022-12-18T01:57:09;59.63;;;37.85;;
73869;SDS011;64924;42.140;24.762;2022-12-18T01:59:34;56.20;;;37.75;;
73869;SDS011;64924;42.140;24.762;2022-12-18T02:02:02;58.03;;;36.40;;
73869;SDS011;64924;42.140;24.762;2022-12-18T02:04:27;51.55;;;35.10;;
73869;SDS011;64924;42.140;24.762;2022-12-18T02:09:47;47.30;;;32.53;;
73869;SDS011;64924;42.140;24.762;2022-12-18T02:12:19;43.45;;;29.50;;
73869;SDS011;64924;42.140;24.762;2022-12-18T02:14:57;45.55;;;27.85;;
73869;SDS011;64924;42.140;24.762;2022-12-18T02:17:49;42.42;;;27.95;;
73869;SDS011;64924;42.140;24.762;2022-12-18T02:20:17;38.55;;;26.05;;
73869;SDS011;64924;42.140;24.762;2022-12-18T02:23:03;37.95;;;24.60;;
73869;SDS011;64924;42.140;24.762;2022-12-18T02:28:36;32.67;;;22.83;;
73869;SDS011;64924;42.140;24.762;2022-12-18T02:31:08;36.05;;;24.92;;
73869;SDS011;64924;42.140;24.762;2022-12-18T02:33:39;37.25;;;24.92;;
73869;SDS011;64924;42.140;24.762;2022-12-18T02:36:06;36.40;;;23.33;;
73869;SDS011;64924;42.140;24.762;2022-12-18T02:38:33;35.13;;;24.20;;
73869;SDS011;64924;42.140;24.762;2022-12-18T02:41:00;33.58;;;21.77;;
73869;SDS011;64924;42.140;24.762;2022-12-18T02:43:25;31.98;;;21.63;;
73869;SDS011;64924;42.140;24.762;2022-12-18T02:45:55;31.35;;;22.05;;
73869;SDS011;64924;42.140;24.762;2022-12-18T02:48:24;34.38;;;22.30;;
73869;SDS011;64924;42.140;24.762;2022-12-18T02:50:59;35.17;;;22.67;;
73869;SDS011;64924;42.140;24.762;2022-12-18T03:01:33;29.80;;;20.75;;
73869;SDS011;64924;42.140;24.762;2022-12-18T03:04:20;33.00;;;21.85;;
73869;SDS011;64924;42.140;24.762;2022-12-18T03:06:53;31.85;;;21.67;;
73869;SDS011;64924;42.140;24.762;2022-12-18T03:09:30;30.20;;;21.48;;
73869;SDS011;64924;42.140;24.762;2022-12-18T03:12:15;30.33;;;21.55;;
73869;SDS011;64924;42.140;24.762;2022-12-18T03:14:57;31.02;;;22.13;;
73869;SDS011;64924;42.140;24.762;2022-12-18T03:17:34;33.58;;;21.70;;
73869;SDS011;64924;42.140;24.762;2022-12-18T03:20:08;37.60;;;22.30;;
73869;SDS011;64924;42.140;24.762;2022-12-18T03:22:38;30.70;;;19.90;;
73869;SDS011;64924;42.140;24.762;2022-12-18T03:25:08;29.80;;;19.13;;
73869;SDS011;64924;42.140;24.762;2022-12-18T03:27:36;31.10;;;20.23;;
73869;SDS011;64924;42.140;24.762;2022-12-18T03:30:08;26.77;;;18.80;;
73869;SDS011;64924;42.140;24.762;2022-12-18T03:33:23;36.28;;;20.70;;
73869;SDS011;64924;42.140;24.762;2022-12-18T03:35:44;31.08;;;20.40;;
73869;SDS011;64924;42.140;24.762;2022-12-18T03:38:11;28.00;;;20.65;;
73869;SDS011;64924;42.140;24.762;2022-12-18T03:41:14;30.98;;;19.95;;
73869;SDS011;64924;42.140;24.762;2022-12-18T03:46:40;27.30;;;18.45;;
73869;SDS011;64924;42.140;24.762;2022-12-18T03:49:10;30.40;;;19.25;;
73869;SDS011;64924;42.140;24.762;2022-12-18T03:51:54;26.23;;;17.75;;
73869;SDS011;64924;42.140;24.762;2022-12-18T03:54:41;26.17;;;16.92;;
73869;SDS011;64924;42.140;24.762;2022-12-18T03:57:11;22.05;;;16.27;;
73869;SDS011;64924;42.140;24.762;2022-12-18T03:59:41;24.83;;;17.23;;
73869;SDS011;64924;42.140;24.762;2022-12-18T04:02:09;23.58;;;16.20;;
73869;SDS011;64924;42.140;24.762;2022-12-18T04:04:35;27.48;;;17.48;;
73869;SDS011;64924;42.140;24.762;2022-12-18T04:07:03;22.45;;;15.88;;
73869;SDS011;64924;42.140;24.762;2022-12-18T04:09:30;24.63;;;16.23;;
73869;SDS011;64924;42.140;24.762;2022-12-18T04:11:57;25.63;;;17.45;;
73869;SDS011;64924;42.140;24.762;2022-12-18T04:14:23;23.40;;;15.32;;
73869;SDS011;64924;42.140;24.762;2022-12-18T04:16:48;22.08;;;15.07;;
73869;SDS011;64924;42.140;24.762;2022-12-18T04:19:14;23.35;;;15.07;;
73869;SDS011;64924;42.140;24.762;2022-12-18T04:21:39;22.85;;;14.18;;
73869;SDS011;64924;42.140;24.762;2022-12-18T04:24:05;22.33;;;14.13;;
73869;SDS011;64924;42.140;24.762;2022-12-18T04:26:31;21.40;;;15.43;;
73869;SDS011;64924;42.140;24.762;2022-12-18T04:28:56;20.77;;;14.50;;
73869;SDS011;64924;42.140;24.762;2022-12-18T04:31:22;22.20;;;13.93;;
73869;SDS011;64924;42.140;24.762;2022-12-18T04:33:47;20.10;;;13.55;;
73869;SDS011;64924;42.140;24.762;2022-12-18T04:36:13;20.83;;;12.82;;
73869;SDS011;64924;42.140;24.762;2022-12-18T04:38:38;20.00;;;13.07;;
73869;SDS011;64924;42.140;24.762;2022-12-18T04:41:04;15.65;;;11.63;;
73869;SDS011;64924;42.140;24.762;2022-12-18T04:43:29;17.23;;;11.10;;
73869;SDS011;64924;42.140;24.762;2022-12-18T04:46:28;15.20;;;10.40;;
73869;SDS011;64924;42.140;24.762;2022-12-18T04:48:46;16.80;;;10.27;;
73869;SDS011;64924;42.140;24.762;2022-12-18T04:51:12;16.33;;;10.15;;
73869;SDS011;64924;42.140;24.762;2022-12-18T04:53:37;13.60;;;9.68;;
73869;SDS011;64924;42.140;24.762;2022-12-18T04:58:29;13.18;;;8.63;;
73869;SDS011;64924;42.140;24.762;2022-12-18T05:00:54;11.63;;;7.97;;
73869;SDS011;64924;42.140;24.762;2022-12-18T05:03:20;13.50;;;7.90;;
73869;SDS011;64924;42.140;24.762;2022-12-18T05:05:48;12.75;;;7.93;;
73869;SDS011;64924;42.140;24.762;2022-12-18T05:08:14;11.43;;;8.13;;
73869;SDS011;64924;42.140;24.762;2022-12-18T05:10:40;12.05;;;7.85;;
73869;SDS011;64924;42.140;24.762;2022-12-18T05:13:05;11.13;;;8.23;;
73869;SDS011;64924;42.140;24.762;2022-12-18T05:15:31;12.02;;;7.35;;
73869;SDS011;64924;42.140;24.762;2022-12-18T05:17:58;11.35;;;7.30;;
73869;SDS011;64924;42.140;24.762;2022-12-18T05:20:24;9.88;;;7.07;;
73869;SDS011;64924;42.140;24.762;2022-12-18T05:22:51;11.30;;;6.28;;
73869;SDS011;64924;42.140;24.762;2022-12-18T05:25:17;12.07;;;8.43;;
73869;SDS011;64924;42.140;24.762;2022-12-18T05:27:42;13.77;;;8.27;;
73869;SDS011;64924;42.140;24.762;2022-12-18T05:30:08;11.07;;;7.75;;
73869;SDS011;64924;42.140;24.762;2022-12-18T05:32:34;11.02;;;7.90;;
73869;SDS011;64924;42.140;24.762;2022-12-18T05:35:00;11.57;;;7.22;;
73869;SDS011;64924;42.140;24.762;2022-12-18T05:37:26;12.27;;;7.47;;
73869;SDS011;64924;42.140;24.762;2022-12-18T05:39:51;12.10;;;8.32;;
73869;SDS011;64924;42.140;24.762;2022-12-18T05:42:17;11.75;;;7.90;;
73869;SDS011;64924;42.140;24.762;2022-12-18T05:44:43;12.77;;;8.60;;
73869;SDS011;64924;42.140;24.762;2022-12-18T05:47:08;13.25;;;8.63;;
73869;SDS011;64924;42.140;24.762;2022-12-18T05:49:34;13.50;;;7.80;;
73869;SDS011;64924;42.140;24.762;2022-12-18T05:51:59;12.98;;;7.72;;
73869;SDS011;64924;42.140;24.762;2022-12-18T05:54:26;11.07;;;7.85;;
73869;SDS011;64924;42.140;24.762;2022-12-18T05:56:53;12.27;;;8.43;;
73869;SDS011;64924;42.140;24.762;2022-12-18T05:59:18;11.20;;;7.43;;
73869;SDS011;64924;42.140;24.762;2022-12-18T06:01:44;12.20;;;7.45;;
73869;SDS011;64924;42.140;24.762;2022-12-18T06:04:10;10.02;;;7.05;;
73869;SDS011;64924;42.140;24.762;2022-12-18T06:06:35;11.38;;;7.43;;
73869;SDS011;64924;42.140;24.762;2022-12-18T06:09:01;10.40;;;7.70;;
73869;SDS011;64924;42.140;24.762;2022-12-18T06:11:33;10.00;;;6.82;;
73869;SDS011;64924;42.140;24.762;2022-12-18T06:13:59;11.13;;;7.13;;
73869;SDS011;64924;42.140;24.762;2022-12-18T06:16:26;11.15;;;6.85;;
73869;SDS011;64924;42.140;24.762;2022-12-18T06:18:52;10.68;;;7.05;;
73869;SDS011;64924;42.140;24.762;2022-12-18T06:21:18;9.57;;;6.85;;
73869;SDS011;64924;42.140;24.762;2022-12-18T06:23:43;12.13;;;6.45;;
73869;SDS011;64924;42.140;24.762;2022-12-18T06:26:10;12.55;;;8.15;;
73869;SDS011;64924;42.140;24.762;2022-12-18T06:28:36;12.10;;;7.75;;
73869;SDS011;64924;42.140;24.762;2022-12-18T06:31:02;14.30;;;9.63;;
73869;SDS011;64924;42.140;24.762;2022-12-18T06:33:29;13.45;;;9.52;;
73869;SDS011;64924;42.140;24.762;2022-12-18T06:35:59;20.90;;;13.05;;
73869;SDS011;64924;42.140;24.762;2022-12-18T06:38:26;13.07;;;9.00;;
73869;SDS011;64924;42.140;24.762;2022-12-18T06:40:51;14.07;;;9.65;;
73869;SDS011;64924;42.140;24.762;2022-12-18T06:43:17;14.98;;;9.93;;
73869;SDS011;64924;42.140;24.762;2022-12-18T06:45:42;17.73;;;10.55;;
73869;SDS011;64924;42.140;24.762;2022-12-18T06:48:08;16.10;;;10.45;;
73869;SDS011;64924;42.140;24.762;2022-12-18T06:50:33;16.98;;;11.77;;
73869;SDS011;64924;42.140;24.762;2022-12-18T06:52:59;13.60;;;8.93;;
73869;SDS011;64924;42.140;24.762;2022-12-18T06:55:24;15.77;;;11.13;;
73869;SDS011;64924;42.140;24.762;2022-12-18T06:57:50;14.88;;;9.68;;
73869;SDS011;64924;42.140;24.762;2022-12-18T07:00:16;15.80;;;9.75;;
73869;SDS011;64924;42.140;24.762;2022-12-18T07:02:42;12.13;;;7.70;;
73869;SDS011;64924;42.140;24.762;2022-12-18T07:05:07;12.85;;;9.48;;
73869;SDS011;64924;42.140;24.762;2022-12-18T07:07:34;12.82;;;9.10;;
73869;SDS011;64924;42.140;24.762;2022-12-18T07:09:59;15.00;;;9.27;;
73869;SDS011;64924;42.140;24.762;2022-12-18T07:12:26;12.30;;;8.45;;
73869;SDS011;64924;42.140;24.762;2022-12-18T07:14:52;15.35;;;9.63;;
73869;SDS011;64924;42.140;24.762;2022-12-18T07:17:17;13.93;;;8.60;;
73869;SDS011;64924;42.140;24.762;2022-12-18T07:19:43;16.50;;;9.90;;
73869;SDS011;64924;42.140;24.762;2022-12-18T07:22:08;11.20;;;8.38;;
73869;SDS011;64924;42.140;24.762;2022-12-18T07:24:34;11.88;;;7.90;;
73869;SDS011;64924;42.140;24.762;2022-12-18T07:26:59;10.85;;;7.93;;
73869;SDS011;64924;42.140;24.762;2022-12-18T07:29:25;13.27;;;8.95;;
73869;SDS011;64924;42.140;24.762;2022-12-18T07:31:50;12.57;;;8.60;;
73869;SDS011;64924;42.140;24.762;2022-12-18T07:34:16;15.52;;;8.63;;
73869;SDS011;64924;42.140;24.762;2022-12-18T07:36:42;12.48;;;8.65;;
73869;SDS011;64924;42.140;24.762;2022-12-18T07:39:07;16.10;;;10.68;;
73869;SDS011;64924;42.140;24.762;2022-12-18T07:41:33;16.42;;;10.90;;
73869;SDS011;64924;42.140;24.762;2022-12-18T07:43:58;13.00;;;9.30;;
73869;SDS011;64924;42.140;24.762;2022-12-18T07:46:24;14.15;;;9.13;;
73869;SDS011;64924;42.140;24.762;2022-12-18T07:48:49;12.80;;;8.52;;
73869;SDS011;64924;42.140;24.762;2022-12-18T07:51:15;12.75;;;8.77;;
73869;SDS011;64924;42.140;24.762;2022-12-18T07:53:41;11.85;;;8.57;;
73869;SDS011;64924;42.140;24.762;2022-12-18T07:56:08;12.55;;;8.25;;
73869;SDS011;64924;42.140;24.762;2022-12-18T07:58:35;10.10;;;7.20;;
73869;SDS011;64924;42.140;24.762;2022-12-18T08:01:05;16.38;;;7.43;;
73869;SDS011;64924;42.140;24.762;2022-12-18T08:03:32;14.57;;;7.88;;
73869;SDS011;64924;42.140;24.762;2022-12-18T08:05:59;11.48;;;8.25;;
73869;SDS011;64924;42.140;24.762;2022-12-18T08:08:29;12.68;;;8.68;;
73869;SDS011;64924;42.140;24.762;2022-12-18T08:10:55;10.95;;;7.85;;
73869;SDS011;64924;42.140;24.762;2022-12-18T08:13:21;12.05;;;8.63;;
73869;SDS011;64924;42.140;24.762;2022-12-18T08:15:54;14.93;;;8.30;;
73869;SDS011;64924;42.140;24.762;2022-12-18T08:18:24;11.23;;;7.30;;
73869;SDS011;64924;42.140;24.762;2022-12-18T08:20:50;11.88;;;8.27;;
73869;SDS011;64924;42.140;24.762;2022-12-18T08:23:16;17.27;;;9.18;;
73869;SDS011;64924;42.140;24.762;2022-12-18T08:25:41;14.23;;;8.05;;
73869;SDS011;64924;42.140;24.762;2022-12-18T08:28:07;13.27;;;8.02;;
73869;SDS011;64924;42.140;24.762;2022-12-18T08:30:32;15.55;;;8.02;;
73869;SDS011;64924;42.140;24.762;2022-12-18T08:32:58;12.45;;;7.50;;
73869;SDS011;64924;42.140;24.762;2022-12-18T08:35:23;12.20;;;8.40;;
73869;SDS011;64924;42.140;24.762;2022-12-18T08:37:48;14.50;;;7.78;;
73869;SDS011;64924;42.140;24.762;2022-12-18T08:40:15;12.32;;;7.38;;
73869;SDS011;64924;42.140;24.762;2022-12-18T08:42:40;14.20;;;8.38;;
73869;SDS011;64924;42.140;24.762;2022-12-18T08:45:25;13.48;;;8.90;;
73869;SDS011;64924;42.140;24.762;2022-12-18T08:47:51;13.70;;;8.27;;
73869;SDS011;64924;42.140;24.762;2022-12-18T08:50:16;11.55;;;8.35;;
73869;SDS011;64924;42.140;24.762;2022-12-18T08:52:42;32.80;;;22.25;;
73869;SDS011;64924;42.140;24.762;2022-12-18T08:55:08;13.90;;;8.93;;
73869;SDS011;64924;42.140;24.762;2022-12-18T08:57:35;17.92;;;9.65;;
73869;SDS011;64924;42.140;24.762;2022-12-18T09:00:00;12.35;;;8.65;;
73869;SDS011;64924;42.140;24.762;2022-12-18T09:02:26;13.15;;;9.07;;
73869;SDS011;64924;42.140;24.762;2022-12-18T09:04:51;15.10;;;9.40;;
73869;SDS011;64924;42.140;24.762;2022-12-18T09:07:17;17.27;;;10.88;;
73869;SDS011;64924;42.140;24.762;2022-12-18T09:09:42;16.73;;;8.82;;
73869;SDS011;64924;42.140;24.762;2022-12-18T09:12:08;11.85;;;8.82;;
73869;SDS011;64924;42.140;24.762;2022-12-18T09:14:33;12.05;;;8.15;;
73869;SDS011;64924;42.140;24.762;2022-12-18T09:16:59;15.43;;;8.50;;
73869;SDS011;64924;42.140;24.762;2022-12-18T09:19:24;11.27;;;7.10;;
73869;SDS011;64924;42.140;24.762;2022-12-18T09:21:50;11.48;;;7.38;;
73869;SDS011;64924;42.140;24.762;2022-12-18T09:24:15;11.98;;;7.63;;
73869;SDS011;64924;42.140;24.762;2022-12-18T09:26:41;13.00;;;8.73;;
73869;SDS011;64924;42.140;24.762;2022-12-18T09:29:07;15.68;;;8.25;;
73869;SDS011;64924;42.140;24.762;2022-12-18T09:31:33;12.27;;;8.07;;
73869;SDS011;64924;42.140;24.762;2022-12-18T09:33:58;14.30;;;8.73;;
73869;SDS011;64924;42.140;24.762;2022-12-18T09:36:24;14.95;;;8.25;;
73869;SDS011;64924;42.140;24.762;2022-12-18T09:38:50;12.98;;;8.90;;
73869;SDS011;64924;42.140;24.762;2022-12-18T09:43:56;14.55;;;9.25;;
73869;SDS011;64924;42.140;24.762;2022-12-18T09:46:33;17.00;;;9.30;;
73869;SDS011;64924;42.140;24.762;2022-12-18T09:49:02;15.55;;;9.73;;
73869;SDS011;64924;42.140;24.762;2022-12-18T09:51:57;16.45;;;9.05;;
73869;SDS011;64924;42.140;24.762;2022-12-18T09:54:46;13.93;;;8.93;;
73869;SDS011;64924;42.140;24.762;2022-12-18T09:57:16;13.93;;;9.05;;
73869;SDS011;64924;42.140;24.762;2022-12-18T10:02:18;16.10;;;10.18;;
73869;SDS011;64924;42.140;24.762;2022-12-18T10:04:48;14.27;;;9.07;;
73869;SDS011;64924;42.140;24.762;2022-12-18T10:07:49;14.25;;;9.18;;
73869;SDS011;64924;42.140;24.762;2022-12-18T10:15:56;16.75;;;9.40;;
73869;SDS011;64924;42.140;24.762;2022-12-18T10:18:48;15.23;;;9.05;;
73869;SDS011;64924;42.140;24.762;2022-12-18T10:21:29;14.13;;;8.25;;
73869;SDS011;64924;42.140;24.762;2022-12-18T10:24:11;16.80;;;10.15;;
73869;SDS011;64924;42.140;24.762;2022-12-18T10:26:41;14.32;;;9.00;;
73869;SDS011;64924;42.140;24.762;2022-12-18T10:29:16;14.32;;;8.30;;
73869;SDS011;64924;42.140;24.762;2022-12-18T10:31:42;13.90;;;8.25;;
73869;SDS011;64924;42.140;24.762;2022-12-18T10:34:11;14.68;;;8.55;;
73869;SDS011;64924;42.140;24.762;2022-12-18T10:36:40;12.23;;;8.68;;
73869;SDS011;64924;42.140;24.762;2022-12-18T10:39:16;14.75;;;9.35;;
73869;SDS011;64924;42.140;24.762;2022-12-18T10:41:45;12.13;;;7.73;;
73869;SDS011;64924;42.140;24.762;2022-12-18T10:44:32;14.20;;;8.68;;
73869;SDS011;64924;42.140;24.762;2022-12-18T10:47:02;14.02;;;9.13;;
73869;SDS011;64924;42.140;24.762;2022-12-18T10:49:31;12.75;;;9.07;;
73869;SDS011;64924;42.140;24.762;2022-12-18T10:52:31;18.45;;;10.02;;
73869;SDS011;64924;42.140;24.762;2022-12-18T10:55:01;17.92;;;9.75;;
73869;SDS011;64924;42.140;24.762;2022-12-18T10:57:38;13.70;;;9.27;;
73869;SDS011;64924;42.140;24.762;2022-12-18T11:02:50;15.32;;;9.23;;
73869;SDS011;64924;42.140;24.762;2022-12-18T11:05:23;13.02;;;9.60;;
73869;SDS011;64924;42.140;24.762;2022-12-18T11:07:57;12.20;;;8.60;;
73869;SDS011;64924;42.140;24.762;2022-12-18T11:10:31;15.82;;;9.70;;
73869;SDS011;64924;42.140;24.762;2022-12-18T11:13:15;15.15;;;9.60;;
73869;SDS011;64924;42.140;24.762;2022-12-18T11:15:42;14.52;;;9.65;;
73869;SDS011;64924;42.140;24.762;2022-12-18T11:21:07;17.05;;;9.48;;
73869;SDS011;64924;42.140;24.762;2022-12-18T11:26:01;15.80;;;9.40;;
73869;SDS011;64924;42.140;24.762;2022-12-18T11:31:33;15.02;;;9.93;;
73869;SDS011;64924;42.140;24.762;2022-12-18T11:34:00;15.32;;;10.68;;
73869;SDS011;64924;42.140;24.762;2022-12-18T11:36:34;12.27;;;8.43;;
73869;SDS011;64924;42.140;24.762;2022-12-18T11:39:37;13.40;;;9.30;;
73869;SDS011;64924;42.140;24.762;2022-12-18T11:42:15;17.63;;;9.23;;
73869;SDS011;64924;42.140;24.762;2022-12-18T11:47:37;15.18;;;9.80;;
73869;SDS011;64924;42.140;24.762;2022-12-18T11:50:41;16.48;;;10.15;;
73869;SDS011;64924;42.140;24.762;2022-12-18T11:53:19;16.48;;;11.15;;
73869;SDS011;64924;42.140;24.762;2022-12-18T11:55:58;15.43;;;10.75;;
73869;SDS011;64924;42.140;24.762;2022-12-18T11:58:46;19.03;;;12.50;;
73869;SDS011;64924;42.140;24.762;2022-12-18T12:06:24;21.27;;;12.50;;
73869;SDS011;64924;42.140;24.762;2022-12-18T12:11:36;15.05;;;10.43;;
73869;SDS011;64924;42.140;24.762;2022-12-18T12:35:59;17.15;;;10.25;;
73869;SDS011;64924;42.140;24.762;2022-12-18T12:38:46;15.82;;;10.10;;
73869;SDS011;64924;42.140;24.762;2022-12-18T12:41:17;17.15;;;10.88;;
73869;SDS011;64924;42.140;24.762;2022-12-18T12:44:06;13.30;;;9.38;;
73869;SDS011;64924;42.140;24.762;2022-12-18T12:46:35;12.43;;;8.60;;
73869;SDS011;64924;42.140;24.762;2022-12-18T12:49:09;13.95;;;10.07;;
73869;SDS011;64924;42.140;24.762;2022-12-18T12:51:40;15.68;;;10.93;;
73869;SDS011;64924;42.140;24.762;2022-12-18T12:54:14;15.15;;;10.73;;
73869;SDS011;64924;42.140;24.762;2022-12-18T12:56:54;15.27;;;10.30;;
73869;SDS011;64924;42.140;24.762;2022-12-18T13:01:58;27.83;;;13.32;;
73869;SDS011;64924;42.140;24.762;2022-12-18T13:09:32;20.13;;;11.98;;
73869;SDS011;64924;42.140;24.762;2022-12-18T13:12:02;16.73;;;11.73;;
73869;SDS011;64924;42.140;24.762;2022-12-18T13:15:11;17.15;;;11.35;;
73869;SDS011;64924;42.140;24.762;2022-12-18T13:17:45;18.75;;;12.85;;
73869;SDS011;64924;42.140;24.762;2022-12-18T13:20:11;21.30;;;14.60;;
73869;SDS011;64924;42.140;24.762;2022-12-18T13:22:43;26.80;;;15.70;;
73869;SDS011;64924;42.140;24.762;2022-12-18T13:25:30;30.02;;;17.23;;
73869;SDS011;64924;42.140;24.762;2022-12-18T13:35:39;19.80;;;12.52;;
73869;SDS011;64924;42.140;24.762;2022-12-18T13:43:50;29.40;;;17.58;;
73869;SDS011;64924;42.140;24.762;2022-12-18T13:48:58;21.38;;;13.15;;
73869;SDS011;64924;42.140;24.762;2022-12-18T13:51:28;20.33;;;11.70;;
73869;SDS011;64924;42.140;24.762;2022-12-18T13:54:05;18.50;;;12.23;;
73869;SDS011;64924;42.140;24.762;2022-12-18T13:56:43;18.80;;;13.05;;
73869;SDS011;64924;42.140;24.762;2022-12-18T13:59:21;24.67;;;14.90;;
73869;SDS011;64924;42.140;24.762;2022-12-18T14:02:17;21.58;;;14.38;;
73869;SDS011;64924;42.140;24.762;2022-12-18T14:04:47;24.77;;;14.95;;
73869;SDS011;64924;42.140;24.762;2022-12-18T14:07:14;26.38;;;15.43;;
73869;SDS011;64924;42.140;24.762;2022-12-18T14:09:47;24.05;;;14.68;;
73869;SDS011;64924;42.140;24.762;2022-12-18T14:12:16;24.17;;;14.80;;
73869;SDS011;64924;42.140;24.762;2022-12-18T14:15:05;25.30;;;16.45;;
73869;SDS011;64924;42.140;24.762;2022-12-18T14:17:41;22.17;;;15.00;;
73869;SDS011;64924;42.140;24.762;2022-12-18T14:20:12;27.70;;;17.55;;
73869;SDS011;64924;42.140;24.762;2022-12-18T14:22:42;28.67;;;17.95;;
73869;SDS011;64924;42.140;24.762;2022-12-18T14:27:44;29.02;;;19.00;;
73869;SDS011;64924;42.140;24.762;2022-12-18T14:30:31;31.55;;;18.80;;
73869;SDS011;64924;42.140;24.762;2022-12-18T14:33:00;25.40;;;15.48;;
73869;SDS011;64924;42.140;24.762;2022-12-18T14:35:29;24.23;;;15.10;;
73869;SDS011;64924;42.140;24.762;2022-12-18T14:38:09;23.73;;;15.13;;
73869;SDS011;64924;42.140;24.762;2022-12-18T14:40:40;21.98;;;14.43;;
73869;SDS011;64924;42.140;24.762;2022-12-18T14:43:09;24.65;;;16.35;;
73869;SDS011;64924;42.140;24.762;2022-12-18T14:45:36;23.92;;;14.80;;
73869;SDS011;64924;42.140;24.762;2022-12-18T14:48:22;24.33;;;16.05;;
73869;SDS011;64924;42.140;24.762;2022-12-18T14:53:33;25.30;;;16.73;;
73869;SDS011;64924;42.140;24.762;2022-12-18T14:56:12;27.73;;;17.40;;
73869;SDS011;64924;42.140;24.762;2022-12-18T14:58:49;26.48;;;16.13;;
73869;SDS011;64924;42.140;24.762;2022-12-18T15:01:22;26.83;;;16.90;;
73869;SDS011;64924;42.140;24.762;2022-12-18T15:03:50;28.40;;;18.75;;
73869;SDS011;64924;42.140;24.762;2022-12-18T15:06:21;30.70;;;18.48;;
73869;SDS011;64924;42.140;24.762;2022-12-18T15:08:51;34.33;;;19.45;;
73869;SDS011;64924;42.140;24.762;2022-12-18T15:11:54;31.00;;;18.67;;
73869;SDS011;64924;42.140;24.762;2022-12-18T15:16:55;30.25;;;19.40;;
73869;SDS011;64924;42.140;24.762;2022-12-18T15:19:22;31.45;;;18.38;;
73869;SDS011;64924;42.140;24.762;2022-12-18T15:21:57;31.40;;;20.05;;
73869;SDS011;64924;42.140;24.762;2022-12-18T15:24:26;33.30;;;20.90;;
73869;SDS011;64924;42.140;24.762;2022-12-18T15:26:55;31.25;;;20.83;;
73869;SDS011;64924;42.140;24.762;2022-12-18T15:29:21;30.02;;;18.25;;
73869;SDS011;64924;42.140;24.762;2022-12-18T15:32:00;27.52;;;17.33;;
73869;SDS011;64924;42.140;24.762;2022-12-18T15:34:28;27.50;;;17.35;;
73869;SDS011;64924;42.140;24.762;2022-12-18T15:36:54;29.77;;;18.52;;
73869;SDS011;64924;42.140;24.762;2022-12-18T15:39:19;30.50;;;19.33;;
73869;SDS011;64924;42.140;24.762;2022-12-18T15:41:45;31.10;;;19.20;;
73869;SDS011;64924;42.140;24.762;2022-12-18T15:44:29;34.90;;;19.60;;
73869;SDS011;64924;42.140;24.762;2022-12-18T15:46:55;32.42;;;20.33;;
73869;SDS011;64924;42.140;24.762;2022-12-18T15:49:21;31.65;;;20.38;;
73869;SDS011;64924;42.140;24.762;2022-12-18T15:51:49;29.77;;;18.75;;
73869;SDS011;64924;42.140;24.762;2022-12-18T15:54:18;31.45;;;19.17;;
73869;SDS011;64924;42.140;24.762;2022-12-18T15:57:07;33.47;;;19.48;;
73869;SDS011;64924;42.140;24.762;2022-12-18T15:59:54;36.67;;;19.05;;
73869;SDS011;64924;42.140;24.762;2022-12-18T16:02:23;27.10;;;16.80;;
73869;SDS011;64924;42.140;24.762;2022-12-18T16:04:50;40.13;;;21.40;;
73869;SDS011;64924;42.140;24.762;2022-12-18T16:07:17;22.13;;;13.50;;
73869;SDS011;64924;42.140;24.762;2022-12-18T16:09:42;19.08;;;11.95;;
73869;SDS011;64924;42.140;24.762;2022-12-18T16:12:14;26.70;;;14.63;;
73869;SDS011;64924;42.140;24.762;2022-12-18T16:14:42;28.00;;;15.40;;
73869;SDS011;64924;42.140;24.762;2022-12-18T16:17:09;31.98;;;17.27;;
73869;SDS011;64924;42.140;24.762;2022-12-18T16:19:35;17.70;;;11.30;;